Time;durP1;ratioP1;P1;durP2;ratioP2;P2;SDS_P1;SDS_P2;PMS_P1;PMS_P2;Temp;Humidity;BMP_temperature;BMP_pressure;BME280_temperature;BME280_humidity;BME280_pressure;Samples;Min_cycle;Max_cycle;Signal;HPM_P1;HPM_P2
2021/12/10 00:01:54;;;;;;;106.58;43.90;;;;;;;-1.43;84.08;99801.04;1779571;80;22275;-74
2021/12/10 00:04:29;;;;;;;104.23;42.45;;;;;;;-1.43;84.12;99795.97;1777847;79;20966;-74
2021/12/10 00:07:00;;;;;;;100.65;42.13;;;;;;;-1.43;84.12;99778.22;1753297;79;21049;-74
2021/12/10 00:09:35;;;;;;;109.05;44.23;;;;;;;-1.45;84.07;99762.13;1755601;80;21301;-74
2021/12/10 00:12:07;;;;;;;98.15;42.40;;;;;;;-1.48;84.06;99751.92;1792467;79;21074;-74
2021/12/10 00:14:37;;;;;;;104.60;44.75;;;;;;;-1.49;84.09;99750.22;1750478;80;21242;-74
2021/12/10 00:17:08;;;;;;;110.17;46.23;;;;;;;-1.48;84.15;99750.25;1733458;80;21108;-74
2021/12/10 00:19:42;;;;;;;107.80;44.40;;;;;;;-1.47;84.18;99748.56;1767157;80;21136;-74
2021/12/10 00:22:16;;;;;;;112.65;46.50;;;;;;;-1.47;84.15;99751.09;1783503;79;21331;-74
2021/12/10 00:24:45;;;;;;;104.20;42.43;;;;;;;-1.47;84.15;99754.48;1764954;79;21021;-74
2021/12/10 00:27:12;;;;;;;117.62;47.03;;;;;;;-1.47;84.16;99753.63;1761507;78;20934;-74
2021/12/10 00:29:47;;;;;;;115.97;44.10;;;;;;;-1.47;84.16;99745.62;1787509;79;21061;-74
2021/12/10 00:32:19;;;;;;;107.97;43.50;;;;;;;-1.47;84.18;99749.42;1772603;79;21018;-74
2021/12/10 00:34:46;;;;;;;111.00;43.25;;;;;;;-1.46;84.17;99742.67;1775207;80;21685;-74
2021/12/10 00:37:18;;;;;;;113.40;45.63;;;;;;;-1.46;84.17;99741.41;1777045;79;21069;-74
2021/12/10 00:39:53;;;;;;;110.63;44.13;;;;;;;-1.47;84.16;99745.62;1753049;80;20935;-75
2021/12/10 00:42:27;;;;;;;109.48;44.18;;;;;;;-1.47;84.17;99734.21;1781710;80;20895;-74
2021/12/10 00:44:56;;;;;;;113.57;43.87;;;;;;;-1.47;84.21;99731.67;1779524;79;20957;-74
2021/12/10 00:47:24;;;;;;;97.60;42.88;;;;;;;-1.46;84.19;99735.06;1783860;80;20927;-74
2021/12/10 00:49:52;;;;;;;106.85;42.85;;;;;;;-1.47;84.18;99740.96;1773107;79;21018;-74
2021/12/10 00:52:20;;;;;;;109.35;44.65;;;;;;;-1.48;84.18;99745.17;1771313;79;21041;-74
2021/12/10 00:54:46;;;;;;;110.57;44.90;;;;;;;-1.48;84.21;99743.91;1786349;79;20981;-74
2021/12/10 00:57:16;;;;;;;103.95;42.88;;;;;;;-1.48;84.21;99737.98;1777059;79;21049;-74
2021/12/10 00:59:45;;;;;;;101.42;43.68;;;;;;;-1.48;84.23;99735.03;1771565;79;21651;-74
2021/12/10 01:02:15;;;;;;;116.05;46.35;;;;;;;-1.48;84.23;99732.91;1757444;80;21065;-74
2021/12/10 01:04:49;;;;;;;112.28;45.98;;;;;;;-1.49;84.21;99721.92;1768128;80;20961;-74
2021/12/10 01:07:20;;;;;;;108.25;46.15;;;;;;;-1.49;84.23;99720.66;1777176;79;20962;-74
2021/12/10 01:09:50;;;;;;;107.10;45.00;;;;;;;-1.49;84.20;99718.53;1718216;82;21608;-74
2021/12/10 01:12:25;;;;;;;108.37;44.45;;;;;;;-1.49;84.25;99713.05;1726984;82;21074;-74
2021/12/10 01:26:26;;;;;;;97.57;41.95;;;;;;;-1.50;84.26;99663.17;1706657;80;20971;-74
2021/12/10 01:28:57;;;;;;;102.80;43.40;;;;;;;-1.46;84.27;99674.22;1721046;81;20916;-74
2021/12/10 01:31:24;;;;;;;104.90;42.78;;;;;;;-1.45;84.28;99683.12;1746691;80;21315;-74
2021/12/10 01:33:52;;;;;;;95.40;40.45;;;;;;;-1.43;84.30;99694.14;1720035;81;21069;-74
2021/12/10 01:36:20;;;;;;;101.87;40.03;;;;;;;-1.45;84.25;99688.19;1718614;80;20998;-74
2021/12/10 01:38:50;;;;;;;96.20;40.70;;;;;;;-1.47;84.25;99678.44;1722509;82;21021;-74
2021/12/10 01:41:19;;;;;;;101.00;41.75;;;;;;;-1.46;84.30;99668.73;1716467;80;20907;-74
2021/12/10 01:43:51;;;;;;;102.87;42.50;;;;;;;-1.44;84.29;99670.88;1726600;81;20911;-74
2021/12/10 01:46:25;;;;;;;98.52;41.50;;;;;;;-1.43;84.31;99670.47;1726472;81;21020;-74
2021/12/10 01:48:54;;;;;;;98.00;41.13;;;;;;;-1.41;84.32;99665.86;1687500;82;21045;-74
2021/12/10 01:51:26;;;;;;;103.17;41.42;;;;;;;-1.41;84.29;99654.88;1762523;79;21002;-74
2021/12/10 01:53:57;;;;;;;93.42;40.98;;;;;;;-1.41;84.31;99651.06;1764535;80;21097;-74
2021/12/10 01:56:29;;;;;;;105.92;43.28;;;;;;;-1.42;84.28;99643.02;1760179;80;21049;-74
2021/12/10 01:59:01;;;;;;;90.47;39.10;;;;;;;-1.42;84.25;99626.13;1785463;79;21419;-74
2021/12/10 02:01:38;;;;;;;95.80;39.78;;;;;;;-1.42;84.29;99617.67;1758762;79;20874;-74
2021/12/10 02:04:07;;;;;;;91.45;39.95;;;;;;;-1.43;84.32;99605.82;1737429;80;21037;-74
2021/12/10 02:06:35;;;;;;;96.95;41.30;;;;;;;-1.41;84.34;99600.36;1769101;80;21050;-74
2021/12/10 02:09:04;;;;;;;103.40;43.10;;;;;;;-1.41;84.31;99597.83;1793027;79;21016;-74
2021/12/10 02:11:31;;;;;;;98.95;41.30;;;;;;;-1.42;84.34;99593.17;1781222;79;20990;-74
2021/12/10 02:13:57;;;;;;;;;;;;;;;-1.41;84.33;99586.41;1766621;80;21104;-74
2021/12/10 02:16:24;;;;;;;94.42;38.88;;;;;;;-1.41;84.36;99572.47;1748663;79;20156;-74
2021/12/10 02:18:50;;;;;;;98.45;40.90;;;;;;;-1.40;84.34;99573.77;1770352;80;21078;-74
2021/12/10 02:21:21;;;;;;;93.58;41.42;;;;;;;-1.40;84.35;99585.59;1752110;79;21025;-74
2021/12/10 02:23:57;;;;;;;99.55;39.42;;;;;;;-1.42;84.32;99580.49;1785288;80;20891;-74
2021/12/10 02:26:28;;;;;;;90.47;39.23;;;;;;;-1.44;84.27;99581.30;1769937;79;20895;-74
2021/12/10 02:28:55;;;;;;;90.62;39.15;;;;;;;-1.45;84.29;99580.86;1759921;79;21009;-74
2021/12/10 02:31:21;;;;;;;;;;;;;;;-1.47;84.29;99576.17;1776710;79;21071;-74
2021/12/10 02:33:47;;;;;;;89.37;36.03;;;;;;;-1.49;84.27;99579.95;1765679;80;20110;-74
2021/12/10 02:36:15;;;;;;;103.75;38.53;;;;;;;-1.53;84.19;99578.62;1777823;79;20954;-74
2021/12/10 02:38:46;;;;;;;102.10;42.17;;;;;;;-1.57;84.23;99585.35;1764715;79;27185;-74
2021/12/10 02:41:15;;;;;;;103.40;41.00;;;;;;;-1.58;84.25;99589.13;1784787;79;20867;-74
2021/12/10 02:43:46;;;;;;;106.15;41.53;;;;;;;-1.60;84.24;99590.37;1704431;82;21117;-74
2021/12/10 02:46:14;;;;;;;91.67;39.25;;;;;;;-1.62;84.25;99590.76;1785006;79;20915;-74
2021/12/10 02:48:41;;;;;;;99.60;39.10;;;;;;;-1.63;84.30;99581.45;1781929;79;21517;-74
2021/12/10 02:51:08;;;;;;;93.72;37.60;;;;;;;-1.64;84.33;99579.74;1775697;80;21038;-74
2021/12/10 02:53:41;;;;;;;101.67;41.30;;;;;;;-1.65;84.33;99575.91;1784070;80;21050;-74
2021/12/10 02:56:05;;;;;;;91.12;37.65;;;;;;;-1.66;84.34;99568.73;1781698;80;21089;-74
2021/12/10 02:58:32;;;;;;;98.05;37.85;;;;;;;-1.67;84.36;99577.16;1778679;79;21109;-74
2021/12/10 03:01:07;;;;;;;93.92;40.58;;;;;;;-1.65;84.36;99579.72;1753104;79;21124;-74
2021/12/10 03:03:36;;;;;;;96.72;39.63;;;;;;;-1.67;84.37;99578.02;1788696;79;21044;-74
2021/12/10 03:06:10;;;;;;;102.12;41.53;;;;;;;-1.67;84.37;99584.77;1781072;79;21013;-74
2021/12/10 03:08:33;;;;;;;105.45;42.03;;;;;;;-1.68;84.41;99576.72;1734517;80;22220;-74
2021/12/10 03:11:00;;;;;;;98.30;41.20;;;;;;;-1.67;84.41;99566.61;1733322;82;21091;-74
2021/12/10 03:13:26;;;;;;;106.97;42.48;;;;;;;-1.67;84.40;99567.88;1764430;79;21025;-74
2021/12/10 03:15:53;;;;;;;103.67;42.62;;;;;;;-1.68;84.43;99560.25;1784235;79;21482;-74
2021/12/10 03:18:20;;;;;;;96.42;39.80;;;;;;;-1.68;84.42;99546.31;1763657;79;21032;-74
2021/12/10 03:20:46;;;;;;;104.05;42.27;;;;;;;-1.68;84.46;99538.30;1790002;78;20889;-74
2021/12/10 03:23:15;;;;;;;101.20;39.55;;;;;;;-1.67;84.48;99542.53;1775544;79;20926;-74
2021/12/10 03:25:42;;;;;;;98.03;41.13;;;;;;;-1.65;84.48;99535.37;1748479;79;21040;-74
2021/12/10 03:28:09;;;;;;;102.40;40.80;;;;;;;-1.66;84.46;99535.78;1764036;79;21009;-74
2021/12/10 03:30:41;;;;;;;102.25;41.10;;;;;;;-1.64;84.49;99537.92;1765511;80;21803;-74
2021/12/10 03:33:08;;;;;;;96.08;40.58;;;;;;;-1.63;84.47;99539.63;1773821;79;21057;-74
2021/12/10 03:35:41;;;;;;;98.20;38.30;;;;;;;-1.65;84.45;99542.56;1792956;79;20922;-74
2021/12/10 03:38:11;;;;;;;95.95;38.00;;;;;;;-1.65;84.42;99544.23;1755643;79;21044;-74
2021/12/10 03:40:38;;;;;;;90.53;39.48;;;;;;;-1.67;84.45;99534.93;1760477;79;21064;-74
2021/12/10 03:43:07;;;;;;;94.75;41.28;;;;;;;-1.65;84.48;99529.89;1771069;79;21076;-74
2021/12/10 03:45:38;;;;;;;90.07;38.20;;;;;;;-1.65;84.47;99522.28;1757398;80;21112;-74
2021/12/10 03:48:10;;;;;;;96.25;38.92;;;;;;;-1.64;84.50;99518.92;1754926;79;21024;-74
2021/12/10 03:50:37;;;;;;;92.25;40.00;;;;;;;-1.64;84.47;99520.60;1771223;79;21042;-74
2021/12/10 03:53:04;;;;;;;94.55;37.90;;;;;;;-1.66;84.46;99538.31;1783196;80;21356;-74
2021/12/10 03:55:32;;;;;;;89.37;38.40;;;;;;;-1.67;84.48;99546.75;1631630;79;10000733;-74
2021/12/10 03:57:59;;;;;;;89.13;38.90;;;;;;;-1.67;84.49;99542.53;1783156;79;21032;-74
2021/12/10 04:00:30;;;;;;;91.97;37.70;;;;;;;-1.68;84.49;99542.51;1792464;79;21545;-74
2021/12/10 04:02:58;;;;;;;85.72;36.50;;;;;;;-1.64;84.54;99542.99;1766647;80;21039;-74
2021/12/10 04:05:26;;;;;;;88.40;36.90;;;;;;;-1.63;84.56;99538.78;1773276;79;21059;-74
2021/12/10 04:07:54;;;;;;;91.53;38.00;;;;;;;-1.62;84.54;99515.99;1790794;79;20962;-74
2021/12/10 04:10:22;;;;;;;95.20;38.58;;;;;;;-1.61;84.54;99505.03;1782564;79;20896;-74
2021/12/10 04:12:49;;;;;;;90.03;36.15;;;;;;;-1.59;84.58;99508.44;1629958;79;10000309;-74
2021/12/10 04:15:20;;;;;;;96.00;37.25;;;;;;;-1.56;84.57;99513.97;1784797;79;21010;-74
2021/12/10 04:17:48;;;;;;;84.50;35.95;;;;;;;-1.54;84.55;99518.61;1750946;79;20973;-74
2021/12/10 04:20:15;;;;;;;90.65;34.65;;;;;;;-1.52;84.54;99524.56;1772861;79;21031;-74
2021/12/10 04:22:46;;;;;;;85.57;36.00;;;;;;;-1.54;84.54;99509.33;1789396;78;21075;-74
2021/12/10 04:25:10;;;;;;;82.72;35.85;;;;;;;-1.52;84.54;99502.59;1787996;79;21101;-74
2021/12/10 04:27:36;;;;;;;86.70;37.67;;;;;;;-1.52;84.56;99501.33;1780663;79;21105;-74
2021/12/10 04:30:06;;;;;;;83.45;36.42;;;;;;;-1.51;84.54;99494.16;1782041;79;23693;-74
2021/12/10 04:32:33;;;;;;;85.50;36.13;;;;;;;-1.49;84.53;99484.05;1779303;79;21072;-74
2021/12/10 04:35:00;;;;;;;97.73;38.70;;;;;;;-1.48;84.54;99476.88;1187204;80;10000935;-74
2021/12/10 04:37:26;;;;;;;87.88;35.08;;;;;;;-1.47;84.56;99483.65;1758077;79;20946;-74
2021/12/10 04:39:52;;;;;;;84.50;35.10;;;;;;;-1.45;84.57;99489.18;1751972;80;21443;-74
2021/12/10 04:42:24;;;;;;;90.55;36.42;;;;;;;-1.44;84.57;99496.37;1777086;79;21037;-74
2021/12/10 04:44:57;;;;;;;79.95;34.92;;;;;;;-1.43;84.54;99511.60;1761260;79;20965;-74
2021/12/10 04:47:26;;;;;;;82.00;35.65;;;;;;;-1.44;84.54;99509.90;1780364;80;20946;-74
2021/12/10 04:49:52;;;;;;;81.60;34.73;;;;;;;-1.44;84.55;99503.56;1775230;79;21116;-74
2021/12/10 04:52:20;;;;;;;;;;;;;;;-1.44;84.58;99504.83;1775050;80;21013;-74
2021/12/10 04:54:46;;;;;;;77.90;33.80;;;;;;;-1.43;84.62;99504.41;1757052;79;20206;-74
2021/12/10 04:57:13;;;;;;;;;;;;;;;-1.43;84.61;99503.14;1780412;79;21041;-74
2021/12/10 04:59:40;;;;;;;78.70;32.70;;;;;;;-1.43;84.66;99504.00;1751894;79;20857;-74
2021/12/10 05:02:11;;;;;;;88.30;35.83;;;;;;;-1.43;84.62;99510.33;1768069;80;21113;-74
2021/12/10 05:04:43;;;;;;;86.72;35.28;;;;;;;-1.44;84.60;99509.05;1778939;77;20986;-74
2021/12/10 05:07:09;;;;;;;82.40;36.48;;;;;;;-1.44;84.64;99511.58;1772740;79;21061;-74
2021/12/10 05:09:38;;;;;;;81.80;34.03;;;;;;;-1.42;84.66;99512.45;1780429;78;20951;-74
2021/12/10 05:12:06;;;;;;;83.65;35.58;;;;;;;-1.42;84.66;99511.19;1783458;79;21657;-74
2021/12/10 05:14:33;;;;;;;85.15;33.65;;;;;;;-1.42;84.63;99509.92;1781662;79;20974;-74
2021/12/10 05:17:04;;;;;;;76.53;32.80;;;;;;;-1.41;84.65;99511.20;1776437;80;21467;-74
2021/12/10 05:19:28;;;;;;;84.03;35.88;;;;;;;-1.40;84.68;99510.80;1772983;79;20949;-74
2021/12/10 05:21:59;;;;;;;86.92;34.85;;;;;;;-1.39;84.70;99490.95;1773680;79;20994;-75
2021/12/10 05:24:25;;;;;;;90.60;35.52;;;;;;;-1.37;84.70;99481.68;1779380;79;20915;-74
2021/12/10 05:26:51;;;;;;;89.40;34.88;;;;;;;-1.36;84.67;99477.89;1777114;79;21608;-74
2021/12/10 05:29:18;;;;;;;86.22;35.38;;;;;;;-1.35;84.69;99482.14;1762721;79;21117;-75
2021/12/10 05:31:45;;;;;;;86.55;34.35;;;;;;;-1.34;84.69;99477.50;1771969;79;21108;-75
2021/12/10 05:34:12;;;;;;;86.85;35.08;;;;;;;-1.33;84.68;99482.16;1748053;79;20942;-75
2021/12/10 05:36:39;;;;;;;;;;;;;;;-1.34;84.69;99469.90;1755352;80;20898;-75
2021/12/10 05:39:09;;;;;;;76.72;31.12;;;;;;;-1.35;84.71;99454.25;1745465;80;20125;-75
2021/12/10 05:41:35;;;;;;;83.03;35.38;;;;;;;-1.32;84.73;99451.31;1778221;80;20856;-75
2021/12/10 05:44:08;;;;;;;78.72;32.53;;;;;;;-1.31;84.73;99446.68;1781134;79;20870;-75
2021/12/10 05:46:37;;;;;;;85.85;36.10;;;;;;;-1.29;84.73;99447.14;1770072;79;20894;-75
2021/12/10 05:49:04;;;;;;;81.92;35.63;;;;;;;-1.29;84.74;99445.87;1750513;79;20897;-75
2021/12/10 05:51:31;;;;;;;93.25;37.00;;;;;;;-1.28;84.73;99442.91;1784026;79;21455;-76
2021/12/10 05:53:57;;;;;;;87.40;35.83;;;;;;;-1.29;84.70;99433.61;1735760;81;25597;-75
2021/12/10 05:56:23;;;;;;;85.92;35.95;;;;;;;-1.30;84.70;99431.91;1782179;79;21451;-75
2021/12/10 05:58:50;;;;;;;89.37;36.55;;;;;;;-1.31;84.71;99442.46;1761097;80;26581;-76
2021/12/10 06:01:17;;;;;;;;;;;;;;;-1.32;84.73;99443.70;1782868;79;21931;-76
2021/12/10 06:03:51;;;;;;;75.60;33.40;;;;;;;-1.31;84.77;99450.48;1779867;79;20770;-76
2021/12/10 06:06:12;;;;;;;84.95;35.98;;;;;;;-1.33;84.74;99455.53;1775142;79;20910;-76
2021/12/10 06:08:38;;;;;;;82.50;35.17;;;;;;;-1.31;84.78;99446.68;1778222;79;21930;-76
2021/12/10 06:11:06;;;;;;;83.45;34.88;;;;;;;-1.31;84.77;99447.95;1777681;79;20852;-76
2021/12/10 06:13:33;;;;;;;85.87;35.45;;;;;;;-1.31;84.77;99443.73;1751464;80;21427;-76
2021/12/10 06:15:59;;;;;;;80.32;34.20;;;;;;;-1.30;84.79;99444.58;1774786;79;22083;-76
2021/12/10 06:18:26;;;;;;;84.87;35.78;;;;;;;-1.29;84.78;99450.09;1752768;80;20914;-76
2021/12/10 06:20:53;;;;;;;;;;;;;;;-1.29;84.77;99450.94;1736514;80;21450;-75
2021/12/10 06:23:21;;;;;;;84.85;34.40;;;;;;;-1.28;84.83;99453.06;1742084;79;20158;-75
2021/12/10 06:25:47;;;;;;;94.32;36.58;;;;;;;-1.29;84.80;99453.48;1761993;79;21392;-76
2021/12/10 06:28:13;;;;;;;;;;;;;;;-1.28;84.80;99458.98;1764393;80;20934;-76
2021/12/10 06:30:41;;;;;;;;;;;;;;;-1.26;84.85;99452.66;1774344;79;20087;-76
2021/12/10 06:33:12;;;;;;;72.62;30.25;;;;;;;-1.26;84.84;99448.44;1744210;80;20429;-76
2021/12/10 06:35:41;;;;;;;82.33;34.03;;;;;;;-1.25;84.81;99448.03;1733727;80;20938;-76
2021/12/10 06:38:10;;;;;;;82.42;35.23;;;;;;;-1.25;84.80;99448.88;1743733;80;21876;-76
2021/12/10 06:40:38;;;;;;;82.27;34.38;;;;;;;-1.23;84.82;99448.90;1760081;79;20842;-76
2021/12/10 06:43:06;;;;;;;86.40;36.05;;;;;;;-1.23;84.79;99438.75;1759937;79;20933;-76
2021/12/10 06:45:35;;;;;;;82.15;34.73;;;;;;;-1.22;84.80;99434.97;1733677;80;21165;-76
2021/12/10 06:48:05;;;;;;;86.40;34.58;;;;;;;-1.21;84.82;99433.28;1771817;79;21499;-76
2021/12/10 06:50:37;;;;;;;86.85;35.85;;;;;;;-1.21;84.82;99434.14;1760238;79;21315;-75
2021/12/10 06:53:05;;;;;;;85.30;34.55;;;;;;;-1.20;84.81;99447.67;1763303;79;21412;-75
2021/12/10 06:55:34;;;;;;;81.55;33.98;;;;;;;-1.19;84.80;99435.42;1771299;79;22158;-75
2021/12/10 06:58:01;;;;;;;80.62;35.05;;;;;;;-1.19;84.78;99431.62;1744670;79;21529;-75
2021/12/10 07:00:53;;;;;;;92.42;34.83;;;;;;;-1.19;84.78;99431.62;1774906;79;21359;-75
2021/12/10 07:03:23;;;;;;;81.70;33.53;;;;;;;-1.19;84.80;99432.89;1763388;80;21398;-76
2021/12/10 07:05:55;;;;;;;80.57;35.05;;;;;;;-1.21;84.78;99435.41;1744327;79;21897;-76
2021/12/10 07:08:23;;;;;;;90.32;35.60;;;;;;;-1.22;84.78;99440.45;1764039;79;21526;-76
2021/12/10 07:10:51;;;;;;;84.35;34.55;;;;;;;-1.23;84.79;99435.80;1742208;79;21509;-76
2021/12/10 07:13:18;;;;;;;81.20;34.17;;;;;;;-1.20;84.82;99438.80;1764830;79;21852;-76
2021/12/10 07:15:47;;;;;;;79.75;35.58;;;;;;;-1.21;84.81;99431.60;1744029;80;25319;-76
2021/12/10 07:18:16;;;;;;;80.05;34.05;;;;;;;-1.21;84.84;99426.53;1752076;79;21119;-76
2021/12/10 07:20:43;;;;;;;83.82;35.95;;;;;;;-1.20;84.82;99422.31;1755976;79;21435;-75
2021/12/10 07:23:10;;;;;;;80.32;34.58;;;;;;;-1.19;84.83;99424.86;1738241;80;20938;-75
2021/12/10 07:25:39;;;;;;;82.88;36.15;;;;;;;-1.17;84.86;99425.73;1771136;79;21355;-75
2021/12/10 07:28:06;;;;;;;88.65;36.68;;;;;;;-1.16;84.85;99423.63;1765831;79;20899;-75
2021/12/10 07:30:34;;;;;;;87.80;37.33;;;;;;;-1.17;84.83;99416.86;1749944;79;20933;-75
2021/12/10 07:33:01;;;;;;;80.90;34.50;;;;;;;-1.16;84.87;99419.83;1740852;80;21424;-75
2021/12/10 07:35:28;;;;;;;82.90;34.90;;;;;;;-1.15;84.85;99419.41;1734919;79;21298;-76
2021/12/10 07:37:54;;;;;;;82.57;36.08;;;;;;;-1.14;84.85;99417.31;1780108;79;20867;-76
2021/12/10 07:40:24;;;;;;;82.12;36.33;;;;;;;-1.13;84.87;99419.86;1761383;79;21514;-76
2021/12/10 07:42:51;;;;;;;86.65;36.15;;;;;;;-1.12;84.89;99413.11;1764640;79;20913;-76
2021/12/10 07:45:19;;;;;;;;;;;;;;;-1.10;84.88;99415.24;1766961;79;21594;-76
2021/12/10 07:47:49;;;;;;;82.50;36.23;;;;;;;-1.10;84.90;99411.44;1739699;80;20452;-76
2021/12/10 07:50:20;;;;;;;81.82;35.50;;;;;;;-1.09;84.90;99414.41;1758729;79;20946;-76
2021/12/10 07:52:48;;;;;;;93.72;38.85;;;;;;;-1.10;84.90;99414.83;1772790;80;20933;-75
2021/12/10 07:55:16;;;;;;;85.85;37.50;;;;;;;-1.09;84.89;99414.41;1772375;79;20930;-75
2021/12/10 07:57:43;;;;;;;88.17;36.95;;;;;;;-1.07;84.95;99417.40;1731767;79;764468;-76
2021/12/10 08:00:15;;;;;;;88.35;37.13;;;;;;;-1.05;84.94;99411.92;1724439;81;21355;-76
2021/12/10 08:02:42;;;;;;;91.65;39.83;;;;;;;-1.02;84.97;99415.73;1705434;81;20942;-75
2021/12/10 08:05:10;;;;;;;89.55;38.78;;;;;;;-1.00;84.97;99412.80;1701646;81;21616;-76
2021/12/10 08:07:42;;;;;;;91.82;40.92;;;;;;;-0.96;84.97;99413.68;1716528;80;20926;-76
2021/12/10 08:10:12;;;;;;;97.10;42.40;;;;;;;-0.92;85.00;99409.08;1715636;81;21056;-76
2021/12/10 08:12:38;;;;;;;102.72;43.80;;;;;;;-0.88;85.01;99403.61;1701921;81;21072;-76
2021/12/10 08:15:07;;;;;;;96.12;42.43;;;;;;;-0.85;85.01;99397.30;1714560;81;21116;-76
2021/12/10 08:17:35;;;;;;;109.55;45.00;;;;;;;-0.81;85.05;99399.04;1731025;81;21477;-76
2021/12/10 08:20:07;;;;;;;107.10;46.05;;;;;;;-0.79;85.02;99395.68;1731252;81;20941;-76
2021/12/10 08:22:33;;;;;;;107.72;43.87;;;;;;;-0.76;85.03;99404.59;1742100;81;21065;-76
2021/12/10 08:25:00;;;;;;;108.63;45.08;;;;;;;-0.73;85.01;99400.81;1728200;80;21099;-76
2021/12/10 08:27:27;;;;;;;109.75;46.73;;;;;;;-0.69;85.07;99402.97;1722865;80;20970;-76
2021/12/10 08:29:53;;;;;;;117.93;51.28;;;;;;;-0.67;85.02;99402.14;1728639;80;21120;-76
2021/12/10 08:32:21;;;;;;;120.67;50.08;;;;;;;-0.65;84.99;99403.84;1699147;82;21026;-76
2021/12/10 08:34:49;;;;;;;119.55;51.83;;;;;;;-0.63;85.02;99400.48;1689137;82;21066;-76
2021/12/10 08:37:16;;;;;;;119.35;50.50;;;;;;;-0.61;85.00;99402.62;1719092;81;21045;-76
2021/12/10 08:39:44;;;;;;;117.15;50.67;;;;;;;-0.59;85.03;99407.30;1727223;82;21256;-76
2021/12/10 08:42:13;;;;;;;115.47;49.03;;;;;;;-0.55;85.08;99399.29;1684618;83;20985;-76
2021/12/10 08:44:39;;;;;;;116.10;49.83;;;;;;;-0.50;85.11;99405.23;1730696;81;20874;-76
2021/12/10 08:47:05;;;;;;;114.85;49.20;;;;;;;-0.45;85.08;99412.47;1719551;81;20902;-76
2021/12/10 08:49:32;;;;;;;125.55;49.50;;;;;;;-0.44;85.09;99415.44;1737745;80;20933;-76
2021/12/10 08:51:58;;;;;;;115.28;48.90;;;;;;;-0.39;85.10;99413.80;1722688;80;21011;-76
2021/12/10 08:54:27;;;;;;;;;;;;;;;-0.35;85.12;99412.56;1711056;81;20935;-76
2021/12/10 08:56:54;;;;;;;109.00;45.15;;;;;;;-0.29;85.18;99410.49;1732876;81;20121;-76
2021/12/10 08:59:24;;;;;;;116.37;48.17;;;;;;;-0.24;85.17;99407.58;1740574;81;20894;-76
2021/12/10 09:01:55;;;;;;;115.57;48.87;;;;;;;-0.19;85.18;99409.73;1713629;81;20914;-76
2021/12/10 09:04:22;;;;;;;111.05;47.88;;;;;;;-0.12;85.16;99413.17;1734930;81;20942;-76
2021/12/10 09:06:55;;;;;;;111.05;47.20;;;;;;;-0.08;85.14;99418.28;1715784;81;20996;-76
2021/12/10 09:09:22;;;;;;;114.20;47.75;;;;;;;-0.04;85.14;99418.74;1708531;81;20925;-76
2021/12/10 09:11:53;;;;;;;121.82;49.55;;;;;;;0.00;85.12;99419.61;1728572;81;20905;-76
2021/12/10 09:14:26;;;;;;;125.35;49.55;;;;;;;0.03;85.09;99411.98;1711082;82;20961;-76
2021/12/10 09:16:56;;;;;;;120.92;48.13;;;;;;;0.05;85.10;99422.16;1683390;83;20853;-76
2021/12/10 09:19:23;;;;;;;109.95;46.83;;;;;;;0.07;85.07;99413.70;1706789;82;20925;-76
2021/12/10 09:21:51;;;;;;;116.77;49.48;;;;;;;0.08;85.11;99405.23;1751702;81;20906;-76
2021/12/10 09:24:21;;;;;;;114.25;47.35;;;;;;;0.12;85.11;99402.30;1713117;81;21132;-76
2021/12/10 09:26:53;;;;;;;114.42;48.30;;;;;;;0.13;85.10;99407.39;1728842;81;20913;-76
2021/12/10 09:29:20;;;;;;;110.85;48.78;;;;;;;0.12;85.04;99406.11;1717749;81;20938;-75
2021/12/10 09:31:47;;;;;;;116.55;49.00;;;;;;;0.10;85.03;99410.33;1726284;81;20929;-76
2021/12/10 09:34:17;;;;;;;120.95;47.83;;;;;;;0.08;85.03;99401.84;1712692;81;20913;-76
2021/12/10 09:36:47;;;;;;;112.57;49.00;;;;;;;0.07;85.03;99402.69;1708866;81;36128;-76
2021/12/10 09:39:17;;;;;;;129.53;51.45;;;;;;;0.06;85.05;99403.11;1730948;81;21057;-76
2021/12/10 09:41:44;;;;;;;112.75;47.43;;;;;;;0.04;85.07;99399.70;1732356;81;21042;-76
2021/12/10 09:44:12;;;;;;;118.13;48.40;;;;;;;0.05;85.09;99392.93;1737405;80;21103;-76
2021/12/10 09:46:40;;;;;;;116.30;48.35;;;;;;;0.06;85.13;99392.09;1727482;81;20944;-76
2021/12/10 09:49:10;;;;;;;117.42;48.73;;;;;;;0.06;85.13;99390.41;1700338;84;21299;-76
2021/12/10 09:51:44;;;;;;;114.90;49.53;;;;;;;0.08;85.18;99389.14;1685974;83;20935;-75
2021/12/10 09:54:16;;;;;;;110.48;48.60;;;;;;;0.10;85.14;99380.69;1700501;83;20911;-75
2021/12/10 09:56:51;;;;;;;109.25;46.37;;;;;;;0.10;85.16;99387.46;1734467;81;21103;-75
2021/12/10 09:59:25;;;;;;;113.47;47.88;;;;;;;0.14;85.20;99379.02;1740153;81;21536;-76
2021/12/10 10:01:52;;;;;;;;;;;;;;;0.15;85.19;99380.72;1731050;81;21123;-76
2021/12/10 10:04:22;;;;;;;116.47;46.23;;;;;;;0.17;85.18;99381.58;1726286;81;20203;-76
2021/12/10 10:07:08;;;;;;;112.05;48.10;;;;;;;0.17;85.18;99378.61;1691480;84;20883;-75
2021/12/10 10:09:35;;;;;;;109.87;45.92;;;;;;;0.19;85.19;99371.00;1699451;83;21210;-75
2021/12/10 10:12:07;;;;;;;116.77;48.50;;;;;;;0.21;85.21;99373.98;1709793;81;20926;-75
2021/12/10 10:14:35;;;;;;;109.32;49.25;;;;;;;0.24;85.22;99370.60;1703695;83;20910;-75
2021/12/10 10:17:01;;;;;;;124.97;49.38;;;;;;;0.27;85.23;99372.74;1698373;83;21505;-75
2021/12/10 10:19:28;;;;;;;;;;;;;;;0.27;85.19;99367.66;1701037;83;20930;-75
2021/12/10 10:21:57;;;;;;;114.37;47.38;;;;;;;0.28;85.18;99362.15;1719789;81;20120;-76
2021/12/10 10:24:28;;;;;;;123.53;50.95;;;;;;;0.29;85.18;99367.24;1743309;81;21440;-75
2021/12/10 10:26:59;;;;;;;120.45;50.43;;;;;;;0.29;85.14;99361.31;1725373;81;20985;-75
2021/12/10 10:29:32;;;;;;;114.35;50.80;;;;;;;0.29;85.15;99366.39;1718104;81;20921;-75
2021/12/10 10:32:08;;;;;;;120.85;50.98;;;;;;;0.29;85.16;99351.98;1694971;84;20959;-75
2021/12/10 10:34:32;;;;;;;120.67;51.23;;;;;;;0.30;85.20;99354.11;1693415;81;21119;-75
2021/12/10 10:36:58;;;;;;;124.55;52.65;;;;;;;0.30;85.18;99353.69;1726157;82;20957;-75
2021/12/10 10:39:34;;;;;;;127.97;51.37;;;;;;;0.30;85.20;99357.50;1708337;82;21289;-76
2021/12/10 10:42:03;;;;;;;124.78;50.17;;;;;;;0.30;85.15;99365.12;1672576;83;21601;-76
2021/12/10 10:44:30;;;;;;;123.87;51.68;;;;;;;0.30;85.17;99365.55;1667429;83;21392;-76
2021/12/10 10:47:00;;;;;;;134.27;52.70;;;;;;;0.30;85.23;99366.41;1733675;81;20921;-76
2021/12/10 10:49:45;;;;;;;140.40;53.90;;;;;;;0.31;85.21;99367.25;1699993;81;20916;-76
2021/12/10 10:52:29;;;;;;;130.72;51.95;;;;;;;0.30;85.21;99377.84;1731311;81;20920;-75
2021/12/10 10:55:00;;;;;;;141.57;53.50;;;;;;;0.29;85.21;99373.59;1729411;81;21414;-76
2021/12/10 10:57:33;;;;;;;142.15;55.17;;;;;;;0.30;85.23;99375.30;1688509;82;20932;-76
2021/12/10 11:00:13;;;;;;;131.45;52.23;;;;;;;0.32;85.22;99371.50;1725258;81;20966;-76
2021/12/10 11:02:51;;;;;;;150.05;55.88;;;;;;;0.32;85.22;99374.89;1750636;81;21029;-76
2021/12/10 11:05:14;;;;;;;152.93;57.40;;;;;;;0.31;85.20;99372.34;1724585;80;21120;-76
2021/12/10 11:07:58;;;;;;;150.45;57.48;;;;;;;0.31;85.25;99372.34;1685095;83;21150;-76
2021/12/10 11:10:35;;;;;;;147.80;55.23;;;;;;;0.31;85.27;99369.37;1721924;81;21128;-76
2021/12/10 11:13:15;;;;;;;141.50;51.77;;;;;;;0.33;85.30;99369.37;1708196;81;21052;-75
2021/12/10 11:16:04;;;;;;;134.25;52.45;;;;;;;0.34;85.29;99383.80;1706278;81;20993;-75
2021/12/10 11:18:53;;;;;;;138.05;50.60;;;;;;;0.36;85.33;99373.21;1723883;81;21144;-76
2021/12/10 11:21:40;;;;;;;128.32;51.05;;;;;;;0.35;85.25;99375.33;1723206;81;21148;-76
2021/12/10 11:24:24;;;;;;;131.45;49.85;;;;;;;0.37;85.33;99366.43;1719139;81;20965;-76
2021/12/10 11:27:04;;;;;;;135.80;50.78;;;;;;;0.38;85.34;99361.36;1726399;81;21502;-76
2021/12/10 11:29:42;;;;;;;144.28;51.63;;;;;;;0.40;85.30;99362.22;1680852;84;20908;-76
2021/12/10 11:32:35;;;;;;;136.85;50.52;;;;;;;0.40;85.29;99368.56;1738372;81;20950;-76
2021/12/10 11:35:15;;;;;;;144.20;50.88;;;;;;;0.41;85.29;99363.91;1692447;81;20965;-76
2021/12/10 11:37:56;;;;;;;129.80;52.15;;;;;;;0.41;85.30;99356.28;1684975;84;20960;-76
2021/12/10 11:41:01;;;;;;;148.75;53.00;;;;;;;0.40;85.31;99357.12;1729827;81;20925;-76
2021/12/10 11:46:45;;;;;;;149.07;52.05;;;;;;;0.44;85.33;99355.45;1746753;81;20941;-75